sensor_id;sensor_type;location;lat;lon;timestamp;pressure;altitude;pressure_sealevel;temperature;humidity
58761;BME280;44529;47.464;19.014;2022-11-20T00:02:02;99942.22;;;2.15;86.59
58761;BME280;44529;47.464;19.014;2022-11-20T00:05:05;99933.13;;;2.06;87.09
58761;BME280;44529;47.464;19.014;2022-11-20T00:08:08;99916.09;;;2.07;87.76
58761;BME280;44529;47.464;19.014;2022-11-20T00:11:12;99917.63;;;1.98;86.76
58761;BME280;44529;47.464;19.014;2022-11-20T00:14:17;99928.06;;;2.09;85.67
58761;BME280;44529;47.464;19.014;2022-11-20T00:17:19;99930.47;;;2.01;86.27
58761;BME280;44529;47.464;19.014;2022-11-20T00:20:21;99925.63;;;1.93;86.45
58761;BME280;44529;47.464;19.014;2022-11-20T00:23:24;99929.62;;;1.90;86.19
58761;BME280;44529;47.464;19.014;2022-11-20T00:26:27;99941.63;;;1.98;86.59
58761;BME280;44529;47.464;19.014;2022-11-20T00:29:30;99949.63;;;1.98;86.08
58761;BME280;44529;47.464;19.014;2022-11-20T00:32:32;99955.81;;;2.08;84.81
58761;BME280;44529;47.464;19.014;2022-11-20T00:35:34;99946.44;;;1.96;85.13
58761;BME280;44529;47.464;19.014;2022-11-20T00:38:37;99960.50;;;1.86;86.60
58761;BME280;44529;47.464;19.014;2022-11-20T00:41:39;99974.75;;;2.07;86.90
58761;BME280;44529;47.464;19.014;2022-11-20T00:44:41;99973.38;;;2.04;85.93
58761;BME280;44529;47.464;19.014;2022-11-20T00:47:44;99955.00;;;2.08;86.33
58761;BME280;44529;47.464;19.014;2022-11-20T00:50:46;99943.78;;;2.06;85.97
58761;BME280;44529;47.464;19.014;2022-11-20T00:53:48;99940.09;;;2.07;85.79
58761;BME280;44529;47.464;19.014;2022-11-20T00:56:53;99937.16;;;2.13;85.36
58761;BME280;44529;47.464;19.014;2022-11-20T00:59:55;99931.53;;;2.10;85.10
58761;BME280;44529;47.464;19.014;2022-11-20T01:02:57;99940.66;;;2.19;85.38
58761;BME280;44529;47.464;19.014;2022-11-20T01:06:01;99927.53;;;2.07;85.04
58761;BME280;44529;47.464;19.014;2022-11-20T01:09:10;99932.34;;;2.10;85.61
58761;BME280;44529;47.464;19.014;2022-11-20T01:12:13;99934.47;;;2.03;85.55
58761;BME280;44529;47.464;19.014;2022-11-20T01:15:15;99949.38;;;2.04;85.88
58761;BME280;44529;47.464;19.014;2022-11-20T01:18:17;99947.00;;;2.08;85.64
58761;BME280;44529;47.464;19.014;2022-11-20T01:21:22;99950.75;;;2.07;86.82
58761;BME280;44529;47.464;19.014;2022-11-20T01:24:26;99949.63;;;1.98;86.70
58761;BME280;44529;47.464;19.014;2022-11-20T01:27:28;99937.31;;;1.86;87.79
58761;BME280;44529;47.464;19.014;2022-11-20T01:30:30;99937.91;;;1.94;87.97
58761;BME280;44529;47.464;19.014;2022-11-20T01:33:32;99944.31;;;1.98;88.01
58761;BME280;44529;47.464;19.014;2022-11-20T01:36:36;99941.09;;;1.90;89.57
58761;BME280;44529;47.464;19.014;2022-11-20T01:39:38;99934.97;;;1.95;88.96
58761;BME280;44529;47.464;19.014;2022-11-20T01:42:46;99925.87;;;1.86;89.55
58761;BME280;44529;47.464;19.014;2022-11-20T01:46:17;99926.09;;;1.79;91.33
58761;BME280;44529;47.464;19.014;2022-11-20T01:49:24;99925.87;;;1.86;91.41
58761;BME280;44529;47.464;19.014;2022-11-20T01:52:36;99924.81;;;1.87;91.30
58761;BME280;44529;47.464;19.014;2022-11-20T01:55:48;99916.81;;;1.92;92.36
58761;BME280;44529;47.464;19.014;2022-11-20T01:58:52;99912.56;;;1.91;92.92
58761;BME280;44529;47.464;19.014;2022-11-20T02:01:55;99921.41;;;2.02;91.50
58761;BME280;44529;47.464;19.014;2022-11-20T02:05:04;99923.00;;;2.08;91.76
58761;BME280;44529;47.464;19.014;2022-11-20T02:08:12;99926.22;;;2.10;91.79
58761;BME280;44529;47.464;19.014;2022-11-20T02:11:15;99929.16;;;2.13;92.15
58761;BME280;44529;47.464;19.014;2022-11-20T02:14:17;99931.78;;;2.03;91.48
58761;BME280;44529;47.464;19.014;2022-11-20T02:17:19;99924.34;;;2.10;91.41
58761;BME280;44529;47.464;19.014;2022-11-20T02:20:22;99924.59;;;2.04;92.54
58761;BME280;44529;47.464;19.014;2022-11-20T02:23:53;99926.44;;;1.98;92.07
58761;BME280;44529;47.464;19.014;2022-11-20T02:30:04;99931.00;;;2.03;93.69
58761;BME280;44529;47.464;19.014;2022-11-20T02:33:09;99923.28;;;2.06;92.68
58761;BME280;44529;47.464;19.014;2022-11-20T02:36:14;99911.25;;;2.04;92.64
58761;BME280;44529;47.464;19.014;2022-11-20T02:39:18;99906.47;;;2.11;93.29
58761;BME280;44529;47.464;19.014;2022-11-20T02:42:22;99912.38;;;2.23;93.07
58761;BME280;44529;47.464;19.014;2022-11-20T02:45:24;99907.03;;;2.13;93.73
58761;BME280;44529;47.464;19.014;2022-11-20T02:48:27;99905.66;;;2.10;93.52
58761;BME280;44529;47.464;19.014;2022-11-20T02:51:34;99913.66;;;2.05;94.14
58761;BME280;44529;47.464;19.014;2022-11-20T02:54:37;99917.16;;;2.21;92.67
58761;BME280;44529;47.464;19.014;2022-11-20T02:57:39;99903.06;;;2.26;92.84
58761;BME280;44529;47.464;19.014;2022-11-20T03:00:41;99903.31;;;2.29;92.45
58761;BME280;44529;47.464;19.014;2022-11-20T03:03:43;99897.16;;;2.18;93.11
58761;BME280;44529;47.464;19.014;2022-11-20T03:06:46;99881.44;;;2.22;92.40
58761;BME280;44529;47.464;19.014;2022-11-20T03:09:48;99880.88;;;2.25;92.65
58761;BME280;44529;47.464;19.014;2022-11-20T03:12:54;99880.91;;;2.30;91.73
58761;BME280;44529;47.464;19.014;2022-11-20T03:15:57;99886.78;;;2.32;91.93
58761;BME280;44529;47.464;19.014;2022-11-20T03:18:59;99877.72;;;2.33;90.67
58761;BME280;44529;47.464;19.014;2022-11-20T03:22:01;99885.16;;;2.21;92.55
58761;BME280;44529;47.464;19.014;2022-11-20T03:25:04;99911.31;;;2.34;91.23
58761;BME280;44529;47.464;19.014;2022-11-20T03:28:07;99920.66;;;2.37;90.66
58761;BME280;44529;47.464;19.014;2022-11-20T03:31:12;99925.19;;;2.36;89.68
58761;BME280;44529;47.464;19.014;2022-11-20T03:34:15;99915.03;;;2.23;91.92
58761;BME280;44529;47.464;19.014;2022-11-20T03:37:17;99899.56;;;2.25;92.85
58761;BME280;44529;47.464;19.014;2022-11-20T03:40:19;99898.25;;;2.33;92.84
58761;BME280;44529;47.464;19.014;2022-11-20T03:43:21;99894.53;;;2.34;90.73
58761;BME280;44529;47.464;19.014;2022-11-20T03:46:24;99893.16;;;2.31;91.10
58761;BME280;44529;47.464;19.014;2022-11-20T03:49:26;99889.72;;;2.36;91.30
58761;BME280;44529;47.464;19.014;2022-11-20T03:52:28;99887.59;;;2.33;91.19
58761;BME280;44529;47.464;19.014;2022-11-20T03:55:31;99894.22;;;2.30;91.73
58761;BME280;44529;47.464;19.014;2022-11-20T03:58:34;99896.41;;;2.38;90.89
58761;BME280;44529;47.464;19.014;2022-11-20T04:01:46;99892.91;;;2.43;90.36
58761;BME280;44529;47.464;19.014;2022-11-20T04:04:50;99894.25;;;2.40;90.47
58761;BME280;44529;47.464;19.014;2022-11-20T04:07:53;99888.91;;;2.35;91.44
58761;BME280;44529;47.464;19.014;2022-11-20T04:10:55;99887.31;;;2.39;90.22
58761;BME280;44529;47.464;19.014;2022-11-20T04:14:00;99889.44;;;2.37;90.74
58761;BME280;44529;47.464;19.014;2022-11-20T04:17:03;99878.75;;;2.37;90.99
58761;BME280;44529;47.464;19.014;2022-11-20T04:20:06;99865.44;;;2.32;89.79
58761;BME280;44529;47.464;19.014;2022-11-20T04:23:08;99858.50;;;2.41;88.92
58761;BME280;44529;47.464;19.014;2022-11-20T04:26:11;99856.63;;;2.47;88.65
58761;BME280;44529;47.464;19.014;2022-11-20T04:29:14;99860.09;;;2.32;87.70
58761;BME280;44529;47.464;19.014;2022-11-20T04:32:16;99856.37;;;2.33;88.90
58761;BME280;44529;47.464;19.014;2022-11-20T04:35:18;99857.97;;;2.34;90.19
58761;BME280;44529;47.464;19.014;2022-11-20T04:38:20;99859.03;;;2.33;89.68
58761;BME280;44529;47.464;19.014;2022-11-20T04:41:25;99867.84;;;2.34;89.73
58761;BME280;44529;47.464;19.014;2022-11-20T04:44:27;99859.56;;;2.35;89.99
58761;BME280;44529;47.464;19.014;2022-11-20T04:47:30;99857.97;;;2.34;90.34
58761;BME280;44529;47.464;19.014;2022-11-20T04:50:32;99852.09;;;2.42;90.20
58761;BME280;44529;47.464;19.014;2022-11-20T04:53:34;99847.03;;;2.41;91.43
58761;BME280;44529;47.464;19.014;2022-11-20T04:56:36;99831.81;;;2.52;90.37
58761;BME280;44529;47.464;19.014;2022-11-20T04:59:39;99833.13;;;2.49;89.49
58761;BME280;44529;47.464;19.014;2022-11-20T05:02:41;99825.41;;;2.58;89.76
58761;BME280;44529;47.464;19.014;2022-11-20T05:05:43;99827.53;;;2.66;89.39
58761;BME280;44529;47.464;19.014;2022-11-20T05:08:45;99836.62;;;2.55;89.22
58761;BME280;44529;47.464;19.014;2022-11-20T05:11:48;99851.03;;;2.54;89.73
58761;BME280;44529;47.464;19.014;2022-11-20T05:14:52;99849.44;;;2.48;90.91
58761;BME280;44529;47.464;19.014;2022-11-20T05:17:55;99848.34;;;2.49;91.23
58761;BME280;44529;47.464;19.014;2022-11-20T05:20:57;99846.22;;;2.46;90.01
58761;BME280;44529;47.464;19.014;2022-11-20T05:24:00;99832.63;;;2.42;91.39
58761;BME280;44529;47.464;19.014;2022-11-20T05:27:02;99837.44;;;2.45;90.45
58761;BME280;44529;47.464;19.014;2022-11-20T05:30:05;99838.22;;;2.40;91.94
58761;BME280;44529;47.464;19.014;2022-11-20T05:33:07;99823.03;;;2.46;90.77
58761;BME280;44529;47.464;19.014;2022-11-20T05:36:11;99820.59;;;2.44;91.74
58761;BME280;44529;47.464;19.014;2022-11-20T05:39:14;99812.63;;;2.39;92.30
58761;BME280;44529;47.464;19.014;2022-11-20T05:42:16;99806.19;;;2.25;92.61
58761;BME280;44529;47.464;19.014;2022-11-20T05:45:33;99812.88;;;2.43;91.31
58761;BME280;44529;47.464;19.014;2022-11-20T05:48:38;99820.59;;;2.50;89.72
58761;BME280;44529;47.464;19.014;2022-11-20T05:51:40;99821.94;;;2.47;91.26
58761;BME280;44529;47.464;19.014;2022-11-20T05:54:43;99826.75;;;2.45;90.77
58761;BME280;44529;47.464;19.014;2022-11-20T05:57:45;99833.94;;;2.50;90.60
58761;BME280;44529;47.464;19.014;2022-11-20T06:00:47;99848.91;;;2.46;91.34
58761;BME280;44529;47.464;19.014;2022-11-20T06:03:50;99849.69;;;2.56;90.91
58761;BME280;44529;47.464;19.014;2022-11-20T06:06:53;99838.47;;;2.59;90.00
58761;BME280;44529;47.464;19.014;2022-11-20T06:09:55;99842.75;;;2.55;90.38
58761;BME280;44529;47.464;19.014;2022-11-20T06:12:58;99856.87;;;2.61;90.68
58761;BME280;44529;47.464;19.014;2022-11-20T06:16:01;99855.81;;;2.62;90.60
58761;BME280;44529;47.464;19.014;2022-11-20T06:19:03;99843.53;;;2.56;91.31
58761;BME280;44529;47.464;19.014;2022-11-20T06:22:06;99840.87;;;2.66;90.49
58761;BME280;44529;47.464;19.014;2022-11-20T06:25:08;99840.31;;;2.74;89.79
58761;BME280;44529;47.464;19.014;2022-11-20T06:28:10;99842.47;;;2.67;90.43
58761;BME280;44529;47.464;19.014;2022-11-20T06:31:14;99834.47;;;2.72;90.50
58761;BME280;44529;47.464;19.014;2022-11-20T06:34:17;99851.28;;;2.67;89.53
58761;BME280;44529;47.464;19.014;2022-11-20T06:37:19;99862.47;;;2.69;90.88
58761;BME280;44529;47.464;19.014;2022-11-20T06:40:21;99865.94;;;2.70;90.02
58761;BME280;44529;47.464;19.014;2022-11-20T06:43:24;99877.44;;;2.60;91.58
58761;BME280;44529;47.464;19.014;2022-11-20T06:46:27;99881.44;;;2.73;90.00
58761;BME280;44529;47.464;19.014;2022-11-20T06:49:29;99884.38;;;2.71;88.83
58761;BME280;44529;47.464;19.014;2022-11-20T06:52:32;99883.31;;;2.78;88.72
58761;BME280;44529;47.464;19.014;2022-11-20T06:55:42;99895.31;;;2.85;89.03
58761;BME280;44529;47.464;19.014;2022-11-20T06:58:44;99876.34;;;2.77;89.30
58761;BME280;44529;47.464;19.014;2022-11-20T07:01:47;99864.09;;;2.70;89.25
58761;BME280;44529;47.464;19.014;2022-11-20T07:04:49;99867.53;;;2.76;89.89
58761;BME280;44529;47.464;19.014;2022-11-20T07:07:51;99865.94;;;2.75;89.58
58761;BME280;44529;47.464;19.014;2022-11-20T07:10:58;99863.81;;;2.72;90.57
58761;BME280;44529;47.464;19.014;2022-11-20T07:14:01;99865.66;;;2.82;90.70
58761;BME280;44529;47.464;19.014;2022-11-20T07:17:03;99878.50;;;2.85;90.17
58761;BME280;44529;47.464;19.014;2022-11-20T07:20:06;99886.75;;;2.88;90.67
58761;BME280;44529;47.464;19.014;2022-11-20T07:23:08;99881.97;;;2.85;91.79
58761;BME280;44529;47.464;19.014;2022-11-20T07:26:11;99888.34;;;2.94;92.18
58761;BME280;44529;47.464;19.014;2022-11-20T07:29:13;99887.81;;;2.92;93.96
58761;BME280;44529;47.464;19.014;2022-11-20T07:32:15;99887.56;;;2.94;94.30
58761;BME280;44529;47.464;19.014;2022-11-20T07:35:18;99891.84;;;2.90;98.05
58761;BME280;44529;47.464;19.014;2022-11-20T07:38:20;99893.16;;;2.97;98.37
58761;BME280;44529;47.464;19.014;2022-11-20T07:41:23;99902.50;;;3.00;99.25
58761;BME280;44529;47.464;19.014;2022-11-20T07:44:25;99903.06;;;2.97;99.47
58761;BME280;44529;47.464;19.014;2022-11-20T07:47:27;99907.56;;;3.07;98.02
58761;BME280;44529;47.464;19.014;2022-11-20T07:50:29;99901.19;;;2.97;99.76
58761;BME280;44529;47.464;19.014;2022-11-20T07:53:32;99894.22;;;3.02;98.27
58761;BME280;44529;47.464;19.014;2022-11-20T07:56:34;99900.06;;;3.09;99.13
58761;BME280;44529;47.464;19.014;2022-11-20T07:59:36;99903.00;;;3.17;99.08
58761;BME280;44529;47.464;19.014;2022-11-20T08:02:39;99904.09;;;3.11;100.00
58761;BME280;44529;47.464;19.014;2022-11-20T08:05:42;99892.06;;;3.14;99.96
58761;BME280;44529;47.464;19.014;2022-11-20T08:08:44;99886.19;;;3.12;100.00
58761;BME280;44529;47.464;19.014;2022-11-20T08:11:46;99878.47;;;2.95;100.00
58761;BME280;44529;47.464;19.014;2022-11-20T08:15:08;99878.19;;;3.07;100.00
58761;BME280;44529;47.464;19.014;2022-11-20T08:18:14;99889.66;;;3.22;98.32
58761;BME280;44529;47.464;19.014;2022-11-20T08:21:34;99895.28;;;3.16;97.72
58761;BME280;44529;47.464;19.014;2022-11-20T08:24:39;99883.47;;;3.32;98.08
58761;BME280;44529;47.464;19.014;2022-11-20T08:27:41;99881.34;;;3.24;97.68
58761;BME280;44529;47.464;19.014;2022-11-20T08:30:44;99866.91;;;3.25;100.00
58761;BME280;44529;47.464;19.014;2022-11-20T08:33:47;99864.25;;;3.30;100.00
58761;BME280;44529;47.464;19.014;2022-11-20T08:36:50;99863.87;;;3.47;100.00
58761;BME280;44529;47.464;19.014;2022-11-20T08:39:52;99883.38;;;3.58;100.00
58761;BME280;44529;47.464;19.014;2022-11-20T08:42:56;99882.78;;;3.66;100.00
58761;BME280;44529;47.464;19.014;2022-11-20T08:45:58;99884.91;;;3.74;100.00
58761;BME280;44529;47.464;19.014;2022-11-20T08:49:00;99884.38;;;3.72;100.00
58761;BME280;44529;47.464;19.014;2022-11-20T08:52:02;99893.44;;;3.76;100.00
58761;BME280;44529;47.464;19.014;2022-11-20T08:55:06;99895.25;;;3.86;100.00
58761;BME280;44529;47.464;19.014;2022-11-20T08:58:09;99898.19;;;3.89;99.75
58761;BME280;44529;47.464;19.014;2022-11-20T09:01:11;99905.88;;;4.06;99.54
58761;BME280;44529;47.464;19.014;2022-11-20T09:04:13;99913.03;;;4.16;99.82
58761;BME280;44529;47.464;19.014;2022-11-20T09:07:16;99914.88;;;4.20;100.00
58761;BME280;44529;47.464;19.014;2022-11-20T09:10:18;99920.22;;;4.20;100.00
58761;BME280;44529;47.464;19.014;2022-11-20T09:13:27;99922.13;;;4.15;99.07
58761;BME280;44529;47.464;19.014;2022-11-20T09:16:30;99914.94;;;4.05;97.99
58761;BME280;44529;47.464;19.014;2022-11-20T09:19:33;99918.41;;;4.05;96.99
58761;BME280;44529;47.464;19.014;2022-11-20T09:22:39;99923.78;;;4.05;97.88
58761;BME280;44529;47.464;19.014;2022-11-20T09:25:42;99931.56;;;4.02;97.65
58761;BME280;44529;47.464;19.014;2022-11-20T09:28:45;99921.66;;;4.02;97.64
58761;BME280;44529;47.464;19.014;2022-11-20T09:31:47;99918.13;;;4.12;97.82
58761;BME280;44529;47.464;19.014;2022-11-20T09:34:49;99915.97;;;4.14;98.61
58761;BME280;44529;47.464;19.014;2022-11-20T09:37:52;99910.37;;;4.11;97.98
58761;BME280;44529;47.464;19.014;2022-11-20T09:41:00;99906.84;;;4.20;96.24
58761;BME280;44529;47.464;19.014;2022-11-20T09:47:53;99907.53;;;4.36;94.83
58761;BME280;44529;47.464;19.014;2022-11-20T09:54:33;99897.88;;;4.40;94.95
58761;BME280;44529;47.464;19.014;2022-11-20T09:57:40;99897.41;;;4.33;95.29
58761;BME280;44529;47.464;19.014;2022-11-20T10:00:45;99892.31;;;4.31;96.70
58761;BME280;44529;47.464;19.014;2022-11-20T10:03:57;99890.03;;;4.49;96.04
58761;BME280;44529;47.464;19.014;2022-11-20T10:17:05;99867.88;;;4.77;96.78
58761;BME280;44529;47.464;19.014;2022-11-20T10:24:07;99850.84;;;4.92;96.61
58761;BME280;44529;47.464;19.014;2022-11-20T10:27:39;99845.91;;;5.04;97.66
58761;BME280;44529;47.464;19.014;2022-11-20T10:30:45;99847.50;;;5.29;96.25
58761;BME280;44529;47.464;19.014;2022-11-20T10:33:51;99849.59;;;5.32;94.78
58761;BME280;44529;47.464;19.014;2022-11-20T10:37:21;99850.06;;;5.58;94.93
58761;BME280;44529;47.464;19.014;2022-11-20T10:40:28;99842.81;;;5.59;94.27
58761;BME280;44529;47.464;19.014;2022-11-20T10:43:33;99837.69;;;5.62;94.25
58761;BME280;44529;47.464;19.014;2022-11-20T10:46:45;99846.19;;;5.69;94.09
58761;BME280;44529;47.464;19.014;2022-11-20T10:49:51;99836.62;;;5.82;94.16
58761;BME280;44529;47.464;19.014;2022-11-20T10:53:28;99825.81;;;5.87;93.16
58761;BME280;44529;47.464;19.014;2022-11-20T10:56:46;99833.56;;;5.89;93.69
58761;BME280;44529;47.464;19.014;2022-11-20T11:00:00;99842.53;;;6.03;92.21
58761;BME280;44529;47.464;19.014;2022-11-20T11:03:22;99860.44;;;6.27;90.56
58761;BME280;44529;47.464;19.014;2022-11-20T11:06:47;99858.97;;;6.34;90.84
58761;BME280;44529;47.464;19.014;2022-11-20T11:09:53;99864.72;;;6.28;88.06
58761;BME280;44529;47.464;19.014;2022-11-20T11:12:56;99868.91;;;6.34;90.07
58761;BME280;44529;47.464;19.014;2022-11-20T11:15:58;99862.38;;;6.40;91.22
58761;BME280;44529;47.464;19.014;2022-11-20T11:19:12;99860.25;;;6.37;91.39
58761;BME280;44529;47.464;19.014;2022-11-20T11:22:17;99863.03;;;6.32;91.83
58761;BME280;44529;47.464;19.014;2022-11-20T11:28:24;99864.75;;;6.41;91.99
58761;BME280;44529;47.464;19.014;2022-11-20T11:31:30;99867.38;;;6.46;91.16
58761;BME280;44529;47.464;19.014;2022-11-20T11:34:33;99870.25;;;6.50;89.74
58761;BME280;44529;47.464;19.014;2022-11-20T11:37:37;99863.72;;;6.56;90.96
58761;BME280;44529;47.464;19.014;2022-11-20T11:40:40;99857.84;;;6.54;90.47
58761;BME280;44529;47.464;19.014;2022-11-20T11:43:52;99852.00;;;6.66;88.94
58761;BME280;44529;47.464;19.014;2022-11-20T11:50:31;99848.44;;;6.70;88.48
58761;BME280;44529;47.464;19.014;2022-11-20T11:53:38;99836.09;;;6.69;88.42
58761;BME280;44529;47.464;19.014;2022-11-20T11:56:43;99825.16;;;6.66;87.37
58761;BME280;44529;47.464;19.014;2022-11-20T12:03:21;99827.13;;;6.74;88.28
58761;BME280;44529;47.464;19.014;2022-11-20T12:06:26;99833.72;;;6.82;88.35
58761;BME280;44529;47.464;19.014;2022-11-20T12:09:37;99829.84;;;6.88;87.43
58761;BME280;44529;47.464;19.014;2022-11-20T12:12:44;99835.63;;;6.95;86.95
58761;BME280;44529;47.464;19.014;2022-11-20T12:15:47;99839.16;;;7.09;86.67
58761;BME280;44529;47.464;19.014;2022-11-20T12:18:51;99834.44;;;7.15;85.97
58761;BME280;44529;47.464;19.014;2022-11-20T12:22:17;99835.44;;;7.05;84.66
58761;BME280;44529;47.464;19.014;2022-11-20T12:25:30;99832.47;;;7.20;83.07
58761;BME280;44529;47.464;19.014;2022-11-20T12:28:47;99812.34;;;7.18;81.52
58761;BME280;44529;47.464;19.014;2022-11-20T12:39:03;99813.06;;;6.96;82.12
58761;BME280;44529;47.464;19.014;2022-11-20T12:42:42;99823.69;;;7.01;82.27
58761;BME280;44529;47.464;19.014;2022-11-20T12:56:05;99832.84;;;7.00;81.61
58761;BME280;44529;47.464;19.014;2022-11-20T13:06:11;99829.84;;;6.88;82.64
58761;BME280;44529;47.464;19.014;2022-11-20T13:09:18;99832.44;;;6.93;81.68
58761;BME280;44529;47.464;19.014;2022-11-20T13:12:33;99829.28;;;6.91;81.37
58761;BME280;44529;47.464;19.014;2022-11-20T13:16:01;99835.81;;;6.85;81.99
58761;BME280;44529;47.464;19.014;2022-11-20T13:19:11;99839.63;;;6.84;80.24
58761;BME280;44529;47.464;19.014;2022-11-20T13:22:42;99837.19;;;6.82;81.71
58761;BME280;44529;47.464;19.014;2022-11-20T13:25:44;99838.22;;;6.86;81.03
58761;BME280;44529;47.464;19.014;2022-11-20T13:28:48;99832.25;;;6.89;80.78
58761;BME280;44529;47.464;19.014;2022-11-20T13:32:18;99824.19;;;6.89;80.99
58761;BME280;44529;47.464;19.014;2022-11-20T13:35:54;99818.19;;;6.78;81.20
58761;BME280;44529;47.464;19.014;2022-11-20T13:38:56;99811.22;;;6.64;81.95
58761;BME280;44529;47.464;19.014;2022-11-20T13:42:01;99808.72;;;6.67;82.81
58761;BME280;44529;47.464;19.014;2022-11-20T13:45:11;99801.84;;;6.61;84.64
58761;BME280;44529;47.464;19.014;2022-11-20T13:48:24;99798.06;;;6.62;83.70
58761;BME280;44529;47.464;19.014;2022-11-20T13:55:02;99798.59;;;6.64;84.08
58761;BME280;44529;47.464;19.014;2022-11-20T14:01:37;99793.47;;;6.49;83.45
58761;BME280;44529;47.464;19.014;2022-11-20T14:04:43;99796.28;;;6.58;82.75
58761;BME280;44529;47.464;19.014;2022-11-20T14:07:47;99782.56;;;6.59;83.06
58761;BME280;44529;47.464;19.014;2022-11-20T14:10:50;99784.94;;;6.61;83.45
58761;BME280;44529;47.464;19.014;2022-11-20T14:13:56;99792.41;;;6.64;83.04
58761;BME280;44529;47.464;19.014;2022-11-20T14:20:24;99788.81;;;6.55;81.99
58761;BME280;44529;47.464;19.014;2022-11-20T14:23:29;99793.19;;;6.50;82.11
58761;BME280;44529;47.464;19.014;2022-11-20T14:26:32;99794.16;;;6.41;83.67
58761;BME280;44529;47.464;19.014;2022-11-20T14:29:36;99801.78;;;6.34;83.71
58761;BME280;44529;47.464;19.014;2022-11-20T14:32:39;99808.75;;;6.35;84.85
58761;BME280;44529;47.464;19.014;2022-11-20T14:35:48;99811.00;;;6.28;83.83
58761;BME280;44529;47.464;19.014;2022-11-20T14:38:51;99812.59;;;6.29;84.72
58761;BME280;44529;47.464;19.014;2022-11-20T14:41:54;99820.16;;;6.27;84.06
58761;BME280;44529;47.464;19.014;2022-11-20T14:44:59;99822.28;;;6.11;85.33
58761;BME280;44529;47.464;19.014;2022-11-20T14:48:03;99826.28;;;6.13;84.57
58761;BME280;44529;47.464;19.014;2022-11-20T14:51:05;99824.47;;;6.09;85.35
58761;BME280;44529;47.464;19.014;2022-11-20T14:54:15;99825.06;;;6.06;86.19
58761;BME280;44529;47.464;19.014;2022-11-20T14:57:32;99828.31;;;6.03;84.90
58761;BME280;44529;47.464;19.014;2022-11-20T15:00:35;99831.06;;;5.97;85.08
58761;BME280;44529;47.464;19.014;2022-11-20T15:03:40;99828.97;;;5.94;85.67
58761;BME280;44529;47.464;19.014;2022-11-20T15:06:51;99833.16;;;5.82;87.30
58761;BME280;44529;47.464;19.014;2022-11-20T15:10:06;99839.31;;;5.82;85.95
58761;BME280;44529;47.464;19.014;2022-11-20T15:13:14;99838.88;;;5.75;87.12
58761;BME280;44529;47.464;19.014;2022-11-20T15:16:20;99838.94;;;5.70;86.97
58761;BME280;44529;47.464;19.014;2022-11-20T15:19:24;99839.72;;;5.70;87.04
58761;BME280;44529;47.464;19.014;2022-11-20T15:22:27;99838.25;;;5.59;87.26
58761;BME280;44529;47.464;19.014;2022-11-20T15:25:29;99832.50;;;5.47;87.63
58761;BME280;44529;47.464;19.014;2022-11-20T15:28:39;99831.47;;;5.24;91.21
58761;BME280;44529;47.464;19.014;2022-11-20T15:31:42;99837.88;;;5.28;89.75
58761;BME280;44529;47.464;19.014;2022-11-20T15:34:48;99841.41;;;5.24;89.70
58761;BME280;44529;47.464;19.014;2022-11-20T15:37:51;99837.16;;;5.18;90.38
58761;BME280;44529;47.464;19.014;2022-11-20T15:40:53;99842.13;;;5.05;91.15
58761;BME280;44529;47.464;19.014;2022-11-20T15:43:57;99839.53;;;4.95;92.49
58761;BME280;44529;47.464;19.014;2022-11-20T15:46:59;99840.69;;;4.89;92.84
58761;BME280;44529;47.464;19.014;2022-11-20T15:50:02;99846.78;;;4.95;92.98
58761;BME280;44529;47.464;19.014;2022-11-20T15:53:04;99850.88;;;4.87;93.13
58761;BME280;44529;47.464;19.014;2022-11-20T15:56:14;99840.78;;;4.79;93.28
58761;BME280;44529;47.464;19.014;2022-11-20T15:59:16;99839.19;;;4.78;93.68
58761;BME280;44529;47.464;19.014;2022-11-20T16:02:18;99838.78;;;4.66;95.32
58761;BME280;44529;47.464;19.014;2022-11-20T16:05:21;99840.53;;;4.75;93.86
58761;BME280;44529;47.464;19.014;2022-11-20T16:08:24;99836.66;;;4.62;94.73
58761;BME280;44529;47.464;19.014;2022-11-20T16:11:27;99842.19;;;4.42;96.51
58761;BME280;44529;47.464;19.014;2022-11-20T16:14:29;99839.50;;;4.42;96.04
58761;BME280;44529;47.464;19.014;2022-11-20T16:18:17;99838.56;;;4.28;97.96
58761;BME280;44529;47.464;19.014;2022-11-20T16:21:20;99841.75;;;4.30;97.58
58761;BME280;44529;47.464;19.014;2022-11-20T16:24:22;99840.44;;;4.27;98.65
58761;BME280;44529;47.464;19.014;2022-11-20T16:27:25;99839.31;;;4.33;97.71
58761;BME280;44529;47.464;19.014;2022-11-20T16:30:27;99826.69;;;4.39;96.81
58761;BME280;44529;47.464;19.014;2022-11-20T16:33:30;99837.91;;;4.41;96.35
58761;BME280;44529;47.464;19.014;2022-11-20T16:36:33;99838.50;;;4.38;96.75
58761;BME280;44529;47.464;19.014;2022-11-20T16:39:35;99841.72;;;4.35;97.59
58761;BME280;44529;47.464;19.014;2022-11-20T16:42:38;99835.03;;;4.32;98.95
58761;BME280;44529;47.464;19.014;2022-11-20T16:45:41;99828.91;;;4.32;97.74
58761;BME280;44529;47.464;19.014;2022-11-20T16:48:45;99837.47;;;4.29;98.05
58761;BME280;44529;47.464;19.014;2022-11-20T16:51:47;99830.53;;;4.28;97.76
58761;BME280;44529;47.464;19.014;2022-11-20T16:54:49;99823.66;;;4.17;98.24
58761;BME280;44529;47.464;19.014;2022-11-20T16:57:51;99828.13;;;4.26;97.58
58761;BME280;44529;47.464;19.014;2022-11-20T17:00:54;99832.41;;;4.27;96.72
58761;BME280;44529;47.464;19.014;2022-11-20T17:04:05;99829.44;;;4.29;95.24
58761;BME280;44529;47.464;19.014;2022-11-20T17:07:08;99824.41;;;4.22;95.87
58761;BME280;44529;47.464;19.014;2022-11-20T17:10:10;99819.66;;;4.14;95.56
58761;BME280;44529;47.464;19.014;2022-11-20T17:13:13;99808.72;;;4.11;96.20
58761;BME280;44529;47.464;19.014;2022-11-20T17:16:17;99809.56;;;4.06;96.34
58761;BME280;44529;47.464;19.014;2022-11-20T17:19:20;99799.69;;;4.01;97.35
58761;BME280;44529;47.464;19.014;2022-11-20T17:22:22;99798.03;;;4.05;97.62
58761;BME280;44529;47.464;19.014;2022-11-20T17:25:25;99794.34;;;4.01;96.66
58761;BME280;44529;47.464;19.014;2022-11-20T17:28:27;99785.81;;;3.99;96.78
58761;BME280;44529;47.464;19.014;2022-11-20T17:31:30;99792.19;;;4.03;96.23